Time;durP1;ratioP1;P1;durP2;ratioP2;P2;SDS_P1;SDS_P2;PMS_P1;PMS_P2;Temp;Humidity;BMP_temperature;BMP_pressure;BME280_temperature;BME280_humidity;BME280_pressure;Samples;Min_cycle;Max_cycle;Signal;HPM_P1;HPM_P2
2022/12/19 00:02:08;;;;;;;30.13;22.83;;;;;;;0.93;100.00;96784.19;5032012;28;20037;-72
2022/12/19 00:04:33;;;;;;;64.15;42.05;;;;;;;1.07;100.00;96784.53;5047108;28;20045;-72
2022/12/19 00:06:59;;;;;;;33.75;25.20;;;;;;;0.98;100.00;96779.69;5051936;28;20071;-60
2022/12/19 00:09:25;;;;;;;38.63;28.27;;;;;;;0.99;100.00;96774.44;5051148;28;20029;-65
2022/12/19 00:11:50;;;;;;;39.63;27.63;;;;;;;0.94;100.00;96775.50;5051871;28;20040;-65
2022/12/19 00:14:16;;;;;;;53.75;37.25;;;;;;;0.92;100.00;96765.22;5052919;28;20033;-65
2022/12/19 00:16:41;;;;;;;39.88;30.00;;;;;;;1.00;100.00;96773.53;5048967;28;20060;-65
2022/12/19 00:19:08;;;;;;;56.72;37.40;;;;;;;1.00;100.00;96770.94;5047891;28;20112;-65
2022/12/19 00:21:34;;;;;;;44.15;30.70;;;;;;;1.02;100.00;96770.03;5048761;28;20105;-65
2022/12/19 00:23:59;;;;;;;100.15;51.90;;;;;;;0.95;100.00;96772.00;5051312;28;20037;-65
2022/12/19 00:26:27;;;;;;;47.35;28.95;;;;;;;0.96;100.00;96760.72;5050946;28;20037;-65
2022/12/19 00:28:55;;;;;;;44.63;28.15;;;;;;;0.92;100.00;96773.00;5045093;28;20033;-60
2022/12/19 00:31:21;;;;;;;41.70;29.70;;;;;;;0.93;100.00;96766.03;5048447;28;20526;-59
2022/12/19 00:33:48;;;;;;;44.42;29.60;;;;;;;0.84;100.00;96762.88;5048511;28;20033;-59
2022/12/19 00:36:17;;;;;;;27.38;22.45;;;;;;;0.80;100.00;96758.72;5049713;28;20290;-60
2022/12/19 00:38:43;;;;;;;24.20;19.20;;;;;;;0.82;100.00;96763.84;5047865;28;20026;-60
2022/12/19 00:41:13;;;;;;;18.17;16.05;;;;;;;0.75;100.00;96765.78;5050887;28;20033;-60
2022/12/19 00:43:39;;;;;;;14.35;12.90;;;;;;;0.85;100.00;96763.72;5048837;28;20054;-63
2022/12/19 00:46:10;;;;;;;15.02;13.13;;;;;;;0.71;100.00;96762.50;5048960;28;20032;-60
2022/12/19 00:48:35;;;;;;;13.88;12.48;;;;;;;0.61;100.00;96763.69;5047719;28;21704;-58
2022/12/19 00:51:11;;;;;;;13.50;12.15;;;;;;;0.65;100.00;96760.09;5051298;28;20434;-56
2022/12/19 00:53:36;;;;;;;12.38;11.15;;;;;;;0.65;100.00;96756.66;5045836;28;20119;-58
2022/12/19 00:56:07;;;;;;;11.82;10.55;;;;;;;0.70;100.00;96752.16;5050959;28;20072;-57
2022/12/19 00:58:33;;;;;;;13.13;11.50;;;;;;;0.56;100.00;96756.09;5046045;28;20055;-56
2022/12/19 01:01:08;;;;;;;24.17;20.77;;;;;;;0.47;100.00;96746.03;5049337;28;20443;-57
2022/12/19 01:03:33;;;;;;;33.78;27.48;;;;;;;0.51;100.00;96746.78;5050255;28;20202;-60
2022/12/19 01:05:59;;;;;;;18.33;16.38;;;;;;;0.53;100.00;96761.38;5063039;28;20048;-60
2022/12/19 01:08:24;;;;;;;15.20;13.68;;;;;;;0.46;100.00;96744.34;5067582;28;20036;-60
2022/12/19 01:10:50;;;;;;;16.92;15.13;;;;;;;0.36;100.00;96748.19;5068208;28;20032;-60
2022/12/19 01:13:18;;;;;;;15.60;13.95;;;;;;;0.29;100.00;96750.13;5062127;28;20052;-60
2022/12/19 01:15:44;;;;;;;35.65;28.05;;;;;;;0.22;100.00;96753.81;5068712;28;20406;-61
2022/12/19 01:18:10;;;;;;;29.27;21.92;;;;;;;0.28;100.00;96749.28;5069136;28;20052;-60
2022/12/19 01:20:40;;;;;;;33.80;27.58;;;;;;;0.13;100.00;96755.81;5067230;28;20056;-60
2022/12/19 01:23:06;;;;;;;24.95;19.30;;;;;;;0.04;100.00;96761.31;5067365;28;20033;-71
2022/12/19 01:25:34;;;;;;;21.35;17.80;;;;;;;0.18;100.00;96758.28;5065452;28;20028;-60
2022/12/19 01:27:59;;;;;;;21.63;17.25;;;;;;;0.14;100.00;96748.91;5064235;28;20049;-60
2022/12/19 01:30:26;;;;;;;24.52;18.83;;;;;;;0.05;100.00;96744.03;5067040;28;20161;-60
2022/12/19 01:32:51;;;;;;;25.50;21.17;;;;;;;0.32;100.00;96752.63;5068375;28;20089;-61
2022/12/19 01:35:17;;;;;;;24.20;19.30;;;;;;;0.19;100.00;96747.00;5062116;28;20490;-60
2022/12/19 01:37:42;;;;;;;22.92;18.30;;;;;;;0.18;100.00;96747.03;5065152;28;20079;-60
2022/12/19 01:40:10;;;;;;;19.23;16.45;;;;;;;0.10;100.00;96739.53;5067866;28;20038;-60
2022/12/19 01:42:36;;;;;;;15.88;14.15;;;;;;;0.03;100.00;96745.81;5067249;28;20032;-70
2022/12/19 01:45:21;;;;;;;15.00;12.43;;;;;;;-0.03;100.00;96737.38;5067257;28;20039;-57
2022/12/19 01:47:59;;;;;;;14.32;12.80;;;;;;;0.00;100.00;96739.03;5066260;28;20162;-58
2022/12/19 01:50:28;;;;;;;13.13;11.80;;;;;;;0.01;100.00;96732.09;5062929;28;20056;-57
2022/12/19 01:52:55;;;;;;;11.65;10.55;;;;;;;-0.11;100.00;96735.94;5063840;28;20016;-57
2022/12/19 01:55:21;;;;;;;11.10;10.05;;;;;;;-0.17;100.00;96727.47;5064940;28;20036;-56
2022/12/19 01:57:47;;;;;;;10.75;9.73;;;;;;;-0.19;100.00;96742.22;5067004;28;20037;-59
2022/12/19 02:00:12;;;;;;;10.88;9.77;;;;;;;-0.13;100.00;96735.97;5065692;28;20028;-60
2022/12/19 02:03:01;;;;;;;19.13;15.18;;;;;;;0.07;100.00;96750.00;5064824;28;20039;-66
2022/12/19 02:05:27;;;;;;;10.45;9.38;;;;;;;0.03;100.00;96756.19;5066770;28;20138;-62
2022/12/19 02:07:53;;;;;;;10.88;9.57;;;;;;;0.02;100.00;96747.59;5062594;28;20414;-62
2022/12/19 02:10:19;;;;;;;9.80;8.90;;;;;;;0.01;100.00;96755.38;5063191;28;20024;-63
2022/12/19 02:12:45;;;;;;;9.90;8.50;;;;;;;-0.06;100.00;96746.97;5064670;28;20414;-62
2022/12/19 02:15:13;;;;;;;19.48;17.10;;;;;;;-0.04;100.00;96751.22;5067404;28;20048;-63
2022/12/19 02:18:08;;;;;;;9.70;8.68;;;;;;;-0.03;100.00;96747.72;5066438;28;20040;-62
2022/12/19 02:21:10;;;;;;;10.03;8.57;;;;;;;-0.03;100.00;96763.25;5066282;28;20020;-56
2022/12/19 02:24:00;;;;;;;8.55;7.70;;;;;;;-0.01;100.00;96752.84;5067169;28;20094;-60
2022/12/19 02:26:48;;;;;;;10.00;8.20;;;;;;;-0.01;100.00;96755.44;5062864;28;20090;-60
2022/12/19 02:29:38;;;;;;;7.88;7.10;;;;;;;-0.06;100.00;96741.78;5062566;28;20102;-60
2022/12/19 02:32:10;;;;;;;8.27;7.47;;;;;;;-0.03;100.00;96749.47;5062101;28;20125;-60
2022/12/19 02:34:58;;;;;;;7.82;7.07;;;;;;;-0.09;100.00;96744.50;5062391;28;20503;-60
2022/12/19 02:37:29;;;;;;;6.30;5.70;;;;;;;0.00;100.00;96744.19;5067213;28;20029;-60
2022/12/19 02:40:26;;;;;;;7.18;5.63;;;;;;;0.03;100.00;96735.47;5063414;28;20106;-58
2022/12/19 02:42:58;;;;;;;4.90;4.57;;;;;;;0.20;100.00;96742.66;5056324;28;20142;-58
2022/12/19 02:45:27;;;;;;;4.90;4.50;;;;;;;0.27;100.00;96742.41;5065480;28;20576;-58
2022/12/19 02:47:52;;;;;;;6.82;5.25;;;;;;;0.35;100.00;96736.13;5064237;28;20502;-58
2022/12/19 02:50:18;;;;;;;5.22;4.65;;;;;;;0.35;100.00;96741.31;5062569;28;20064;-58
2022/12/19 02:52:45;;;;;;;4.55;4.22;;;;;;;0.53;100.00;96725.09;5048308;28;20033;-56
2022/12/19 02:55:22;;;;;;;4.47;4.18;;;;;;;0.54;100.00;96721.59;5064695;28;20040;-58
2022/12/19 02:57:54;;;;;;;4.43;4.13;;;;;;;0.51;100.00;96724.31;5066076;28;20502;-59
2022/12/19 03:00:21;;;;;;;4.40;4.00;;;;;;;0.47;100.00;96725.31;5068001;28;20037;-60
2022/12/19 03:03:09;;;;;;;4.90;4.45;;;;;;;0.40;100.00;96723.84;5063847;28;20033;-71
2022/12/19 03:05:43;;;;;;;10.32;8.48;;;;;;;0.32;100.00;96720.66;5066007;28;20041;-70
2022/12/19 03:08:16;;;;;;;9.02;8.13;;;;;;;0.29;100.00;96724.22;5045456;28;20045;-71
2022/12/19 03:10:51;;;;;;;7.35;6.68;;;;;;;0.26;100.00;96727.75;5062722;28;20204;-72
2022/12/19 03:13:23;;;;;;;7.40;6.70;;;;;;;0.33;100.00;96735.31;5071702;28;20131;-72
2022/12/19 03:15:50;;;;;;;5.75;5.25;;;;;;;0.27;100.00;96729.44;5070500;28;20033;-71
2022/12/19 03:18:16;;;;;;;6.72;6.13;;;;;;;0.24;100.00;96744.28;5082370;28;20462;-55
2022/12/19 03:21:06;;;;;;;6.55;5.95;;;;;;;0.27;100.00;96747.59;5068989;28;20498;-60
2022/12/19 03:23:31;;;;;;;5.90;5.43;;;;;;;0.24;100.00;96745.09;5070490;28;20078;-60
2022/12/19 03:26:02;;;;;;;11.73;6.00;;;;;;;0.18;100.00;96744.47;5066540;28;20056;-60
2022/12/19 03:28:57;;;;;;;5.70;4.97;;;;;;;0.10;100.00;96757.66;5070923;28;20051;-60
2022/12/19 03:31:26;;;;;;;5.00;4.60;;;;;;;0.12;100.00;96761.06;5041313;28;20424;-60
2022/12/19 03:33:59;;;;;;;4.85;4.43;;;;;;;0.09;100.00;96748.19;5063112;28;20028;-60
2022/12/19 03:36:29;;;;;;;5.45;5.05;;;;;;;0.07;100.00;96750.00;5069654;28;20044;-60
2022/12/19 03:38:56;;;;;;;5.28;4.88;;;;;;;0.03;100.00;96743.25;5064815;28;20044;-61
2022/12/19 03:44:12;;;;;;;5.03;4.63;;;;;;;-0.03;100.00;96746.88;5070244;28;20147;-60
2022/12/19 03:46:47;;;;;;;4.40;4.10;;;;;;;0.05;100.00;96746.63;5067619;28;20037;-60
2022/12/19 03:49:13;;;;;;;4.68;4.38;;;;;;;0.09;100.00;96738.69;5067150;28;20040;-60
2022/12/19 03:51:54;;;;;;;4.38;4.03;;;;;;;0.21;100.00;96737.44;5065311;28;20423;-61
2022/12/19 03:54:26;;;;;;;4.40;4.10;;;;;;;0.39;100.00;96724.75;5064430;28;20075;-60
2022/12/19 03:57:29;;;;;;;4.18;3.88;;;;;;;0.63;100.00;96735.16;5066085;28;20039;-60
2022/12/19 03:59:58;;;;;;;3.72;3.42;;;;;;;0.67;100.00;96727.22;5056803;28;20036;-58
2022/12/19 04:02:24;;;;;;;4.10;3.80;;;;;;;0.70;100.00;96728.84;5070180;28;20032;-58
2022/12/19 04:05:01;;;;;;;4.35;3.95;;;;;;;0.61;100.00;96724.00;5069295;28;20506;-58
2022/12/19 04:07:26;;;;;;;12.90;11.52;;;;;;;0.67;100.00;96726.34;5067116;28;20119;-56
2022/12/19 04:09:55;;;;;;;7.35;6.20;;;;;;;0.60;100.00;96725.72;5070191;28;20492;-58
2022/12/19 04:12:27;;;;;;;4.80;4.43;;;;;;;0.57;100.00;96729.28;5068643;28;20131;-58
2022/12/19 04:14:52;;;;;;;5.47;5.07;;;;;;;0.48;100.00;96721.81;5069865;28;20037;-57
2022/12/19 04:17:41;;;;;;;5.95;5.55;;;;;;;0.63;100.00;96729.97;5068689;28;20041;-58
2022/12/19 04:20:10;;;;;;;4.97;4.57;;;;;;;0.70;100.00;96727.09;5065727;28;20041;-67
2022/12/19 04:22:44;;;;;;;4.60;4.25;;;;;;;0.53;100.00;96727.69;5067198;28;20032;-66
2022/12/19 04:25:14;;;;;;;5.35;4.93;;;;;;;0.37;100.00;96724.78;5064376;28;20036;-66
2022/12/19 04:27:45;;;;;;;4.88;4.47;;;;;;;0.21;100.00;96734.84;5066842;28;20098;-66
2022/12/19 04:30:16;;;;;;;4.95;4.40;;;;;;;0.14;100.00;96734.22;5048716;28;20063;-66
2022/12/19 04:32:41;;;;;;;4.85;4.45;;;;;;;0.05;100.00;96728.50;5069036;28;20571;-65
2022/12/19 04:35:07;;;;;;;6.40;4.57;;;;;;;-0.06;100.00;96745.25;5064793;28;20024;-60
2022/12/19 04:37:33;;;;;;;5.88;5.38;;;;;;;-0.12;100.00;96740.25;5068505;28;20051;-60
2022/12/19 04:39:58;;;;;;;6.03;5.57;;;;;;;-0.20;100.00;96734.47;5068889;28;20056;-60
2022/12/19 04:42:24;;;;;;;6.70;6.20;;;;;;;-0.22;100.00;96734.56;5068508;28;20106;-60
2022/12/19 04:44:49;;;;;;;10.80;9.77;;;;;;;-0.23;100.00;96737.19;5068550;28;20071;-60
2022/12/19 04:47:14;;;;;;;9.85;8.85;;;;;;;-0.19;100.00;96728.41;5066003;28;20052;-60
2022/12/19 04:49:40;;;;;;;11.02;9.85;;;;;;;-0.22;100.00;96725.94;5068274;28;20028;-60
2022/12/19 04:52:05;;;;;;;13.98;11.55;;;;;;;-0.20;100.00;96713.78;5068246;28;20490;-60
2022/12/19 04:54:31;;;;;;;15.82;12.20;;;;;;;-0.18;100.00;96717.16;5066411;28;20055;-57
2022/12/19 04:56:57;;;;;;;14.23;12.43;;;;;;;-0.24;100.00;96718.19;5068454;28;20447;-62
2022/12/19 04:59:23;;;;;;;14.82;13.07;;;;;;;-0.31;100.00;96725.34;5069062;28;20028;-60
2022/12/19 05:01:48;;;;;;;18.42;15.77;;;;;;;-0.33;100.00;96731.44;5064986;28;20036;-60
2022/12/19 05:04:14;;;;;;;40.15;30.75;;;;;;;-0.29;100.00;96733.03;5067588;28;20037;-60
2022/12/19 05:06:39;;;;;;;31.58;23.75;;;;;;;-0.35;100.00;96722.91;5067330;28;20036;-60
2022/12/19 05:09:04;;;;;;;32.92;25.52;;;;;;;-0.35;100.00;96718.53;5064606;28;20107;-61
2022/12/19 05:11:30;;;;;;;84.15;54.22;;;;;;;-0.28;100.00;96720.97;5067698;28;20127;-60
2022/12/19 05:13:58;;;;;;;49.53;34.95;;;;;;;-0.12;100.00;96724.72;5067513;28;20040;-56
2022/12/19 05:16:23;;;;;;;54.05;40.90;;;;;;;-0.12;100.00;96718.72;5066426;28;20576;-60
2022/12/19 05:18:48;;;;;;;45.63;34.38;;;;;;;0.22;100.00;96735.69;5061213;28;20033;-60
2022/12/19 05:21:14;;;;;;;36.97;29.70;;;;;;;0.16;100.00;96735.91;5067721;28;20079;-60
2022/12/19 05:23:39;;;;;;;41.88;34.22;;;;;;;0.02;100.00;96741.53;5067938;28;20040;-60
2022/12/19 05:26:05;;;;;;;34.67;29.63;;;;;;;-0.12;100.00;96739.41;5067945;28;20029;-60
2022/12/19 05:28:32;;;;;;;26.25;21.73;;;;;;;-0.11;100.00;96733.34;5068148;28;20041;-60
2022/12/19 05:31:03;;;;;;;25.05;19.67;;;;;;;-0.11;100.00;96744.56;5066872;28;20108;-60
2022/12/19 05:33:29;;;;;;;20.73;16.65;;;;;;;-0.09;100.00;96744.50;5068567;28;20114;-63
2022/12/19 05:35:54;;;;;;;18.77;15.80;;;;;;;0.03;100.00;96741.50;5062897;28;20478;-65
2022/12/19 05:38:19;;;;;;;17.38;14.48;;;;;;;-0.04;100.00;96746.03;5067738;28;20086;-65
2022/12/19 05:40:45;;;;;;;15.82;13.68;;;;;;;-0.10;100.00;96740.22;5065335;28;20021;-65
2022/12/19 05:43:10;;;;;;;13.93;12.43;;;;;;;-0.02;100.00;96739.06;5067572;28;20458;-65
2022/12/19 05:45:35;;;;;;;14.15;12.57;;;;;;;-0.12;100.00;96729.88;5065440;28;20079;-65
2022/12/19 05:48:01;;;;;;;14.25;12.73;;;;;;;-0.12;100.00;96737.66;5067559;28;20557;-65
2022/12/19 05:50:26;;;;;;;13.18;11.07;;;;;;;-0.23;100.00;96735.41;5048335;28;20040;-65
2022/12/19 05:52:51;;;;;;;12.48;11.27;;;;;;;-0.21;100.00;96732.78;5068166;28;20115;-64
2022/12/19 05:55:17;;;;;;;12.40;11.20;;;;;;;-0.30;100.00;96719.28;5062326;28;20036;-60
2022/12/19 05:57:42;;;;;;;11.73;10.23;;;;;;;-0.28;100.00;96726.13;5064740;28;20039;-59
2022/12/19 06:00:09;;;;;;;11.15;10.05;;;;;;;-0.27;100.00;96722.66;5064746;28;20052;-60
2022/12/19 06:02:35;;;;;;;11.68;10.13;;;;;;;-0.30;100.00;96723.59;5067886;28;20032;-59
2022/12/19 06:05:00;;;;;;;10.45;9.32;;;;;;;-0.36;100.00;96728.97;5061242;28;20055;-59
2022/12/19 06:07:25;;;;;;;11.43;10.27;;;;;;;-0.36;100.00;96727.22;5067989;28;20512;-59
2022/12/19 06:09:51;;;;;;;10.82;9.73;;;;;;;-0.43;100.00;96725.72;5065671;28;20052;-60
2022/12/19 06:12:16;;;;;;;11.13;10.13;;;;;;;-0.49;100.00;96728.50;5067668;28;20637;-60
2022/12/19 06:14:41;;;;;;;12.98;11.65;;;;;;;-0.44;100.00;96717.13;5066474;28;20028;-59
2022/12/19 06:17:07;;;;;;;10.55;9.68;;;;;;;-0.48;100.00;96720.69;5067417;28;20591;-58
2022/12/19 06:19:32;;;;;;;11.48;10.32;;;;;;;-0.55;100.00;96711.44;5065414;28;20024;-58
2022/12/19 06:21:57;;;;;;;11.68;10.48;;;;;;;-0.54;100.00;96717.47;5065450;28;20445;-58
2022/12/19 06:24:25;;;;;;;13.23;11.70;;;;;;;-0.50;100.00;96726.81;5066557;28;20040;-58
2022/12/19 06:26:51;;;;;;;14.63;13.15;;;;;;;-0.50;100.00;96726.81;5062657;28;20180;-58
2022/12/19 06:29:16;;;;;;;12.27;11.05;;;;;;;-0.53;100.00;96712.22;5066543;28;20498;-58
2022/12/19 06:31:42;;;;;;;10.95;9.85;;;;;;;-0.54;100.00;96709.72;5065565;28;20036;-61
2022/12/19 06:34:11;;;;;;;12.63;11.43;;;;;;;-0.58;100.00;96714.94;5063966;28;20035;-61
2022/12/19 06:36:36;;;;;;;44.47;39.67;;;;;;;-0.51;100.00;96701.84;5064968;28;20033;-60
2022/12/19 06:39:03;;;;;;;19.20;17.30;;;;;;;-0.52;100.00;96707.91;5066791;28;20052;-61
2022/12/19 06:44:15;;;;;;;58.30;46.85;;;;;;;-0.41;100.00;96720.50;5065013;28;20483;-61
2022/12/19 06:46:41;;;;;;;38.78;34.78;;;;;;;-0.34;100.00;96725.41;5065092;28;20107;-61
2022/12/19 06:49:07;;;;;;;37.17;33.28;;;;;;;-0.35;100.00;96726.31;5070046;28;20119;-60
2022/12/19 06:51:33;;;;;;;32.58;28.90;;;;;;;-0.41;100.00;96723.94;5069596;28;20086;-60
2022/12/19 06:53:59;;;;;;;32.35;28.85;;;;;;;-0.49;100.00;96729.34;5068650;28;20032;-59
2022/12/19 06:56:25;;;;;;;32.50;29.00;;;;;;;-0.52;100.00;96723.44;5061585;28;20086;-60
2022/12/19 06:58:50;;;;;;;31.67;28.33;;;;;;;-0.44;100.00;96716.28;5070136;28;20421;-60
2022/12/19 07:01:35;;;;;;;33.03;29.25;;;;;;;-0.46;100.00;96725.81;5071107;28;20115;-60
2022/12/19 07:04:01;;;;;;;51.83;45.08;;;;;;;-0.41;100.00;96712.75;5068263;28;20569;-60
2022/12/19 07:06:27;;;;;;;39.33;34.25;;;;;;;-0.40;100.00;96722.19;5068962;28;20123;-59
2022/12/19 07:08:52;;;;;;;33.10;29.10;;;;;;;-0.38;100.00;96717.81;5070254;28;20028;-59
2022/12/19 07:11:17;;;;;;;25.75;23.33;;;;;;;-0.21;100.00;96717.25;5067593;28;20032;-60
2022/12/19 07:13:43;;;;;;;27.58;24.67;;;;;;;-0.12;100.00;96711.78;5070912;28;20054;-57
2022/12/19 07:16:08;;;;;;;32.20;28.73;;;;;;;-0.18;100.00;96702.50;5069940;28;20079;-57
2022/12/19 07:18:37;;;;;;;37.17;31.70;;;;;;;-0.20;100.00;96711.19;5067422;28;20040;-57
2022/12/19 07:21:05;;;;;;;29.17;25.00;;;;;;;-0.21;100.00;96707.78;5066231;28;20123;-57
2022/12/19 07:23:30;;;;;;;31.15;27.00;;;;;;;-0.18;100.00;96707.66;5069714;28;20089;-57
2022/12/19 07:25:56;;;;;;;28.88;25.63;;;;;;;-0.27;100.00;96712.28;5066977;28;20417;-57
2022/12/19 07:28:21;;;;;;;43.63;38.97;;;;;;;0.02;100.00;96702.69;5069388;28;20075;-60
2022/12/19 07:30:47;;;;;;;36.40;32.70;;;;;;;0.06;100.00;96710.31;5069141;28;20036;-60
2022/12/19 07:33:12;;;;;;;32.72;29.55;;;;;;;-0.05;100.00;96705.50;5070479;28;20063;-63
2022/12/19 07:35:38;;;;;;;34.53;30.98;;;;;;;-0.09;100.00;96716.88;5069304;28;20028;-64
2022/12/19 07:38:04;;;;;;;30.95;27.75;;;;;;;-0.11;100.00;96713.50;5069850;28;20175;-63
2022/12/19 07:40:30;;;;;;;33.22;30.10;;;;;;;-0.06;100.00;96716.75;5062521;28;20032;-64
2022/12/19 07:43:01;;;;;;;39.78;35.67;;;;;;;-0.07;100.00;96724.56;5070392;28;20464;-62
2022/12/19 07:45:27;;;;;;;33.47;30.30;;;;;;;-0.10;100.00;96722.94;5069723;28;20033;-63
2022/12/19 07:47:59;;;;;;;39.80;35.65;;;;;;;-0.16;100.00;96738.66;5069199;28;20033;-60
2022/12/19 07:50:24;;;;;;;33.63;30.20;;;;;;;-0.01;100.00;96727.81;5066363;28;20028;-60
2022/12/19 07:52:49;;;;;;;32.85;28.08;;;;;;;0.04;100.00;96735.44;5065434;28;20493;-60
2022/12/19 07:55:14;;;;;;;16.77;15.27;;;;;;;0.18;100.00;96740.13;5069578;28;20421;-60
2022/12/19 07:57:40;;;;;;;14.90;13.50;;;;;;;0.29;100.00;96744.94;5069213;28;20399;-60
2022/12/19 08:00:06;;;;;;;15.60;14.10;;;;;;;0.39;100.00;96745.47;5066035;28;20044;-60
2022/12/19 08:02:31;;;;;;;25.05;22.42;;;;;;;0.49;100.00;96746.84;5069406;28;20057;-60
2022/12/19 08:04:57;;;;;;;17.58;15.77;;;;;;;0.54;100.00;96750.09;5070601;28;20040;-60
2022/12/19 08:07:22;;;;;;;10.55;9.45;;;;;;;0.71;100.00;96748.66;5070577;28;20056;-63
2022/12/19 08:09:48;;;;;;;8.32;7.53;;;;;;;0.79;100.00;96749.25;5066237;28;20491;-60
2022/12/19 08:12:13;;;;;;;8.88;8.07;;;;;;;1.01;100.00;96753.66;5065693;28;20124;-60
2022/12/19 08:14:38;;;;;;;7.47;6.88;;;;;;;1.17;100.00;96753.06;5070758;28;20035;-60
2022/12/19 08:17:04;;;;;;;8.43;7.50;;;;;;;1.29;100.00;96752.59;5067138;28;20491;-60
2022/12/19 08:19:29;;;;;;;12.82;11.68;;;;;;;1.32;100.00;96747.28;5065820;28;20036;-60
2022/12/19 08:21:54;;;;;;;10.27;9.38;;;;;;;1.43;100.00;96750.31;5067754;28;20116;-60
2022/12/19 08:24:20;;;;;;;10.10;9.07;;;;;;;1.53;100.00;96747.38;5069854;28;20040;-60
2022/12/19 08:26:45;;;;;;;8.23;7.50;;;;;;;1.66;100.00;96746.00;5067912;28;20021;-62
2022/12/19 08:29:10;;;;;;;11.10;9.90;;;;;;;1.81;100.00;96748.84;5066957;28;20055;-60
2022/12/19 08:31:36;;;;;;;8.23;7.47;;;;;;;1.92;100.00;96754.47;5069881;28;20485;-60
2022/12/19 08:34:02;;;;;;;7.60;6.90;;;;;;;2.01;100.00;96753.25;5063962;28;20033;-60
2022/12/19 08:36:27;;;;;;;7.72;7.03;;;;;;;2.10;100.00;96758.06;5069938;28;20044;-60
2022/12/19 08:38:53;;;;;;;7.60;7.00;;;;;;;2.19;100.00;96756.84;5069422;28;20482;-60
2022/12/19 08:41:18;;;;;;;7.65;6.47;;;;;;;2.30;100.00;96759.00;5068616;28;20032;-60
2022/12/19 08:43:51;;;;;;;34.10;25.25;;;;;;;2.30;100.00;96761.59;5066449;28;20029;-61
2022/12/19 08:46:18;;;;;;;16.05;14.43;;;;;;;2.38;100.00;96767.28;5070066;28;20037;-72
2022/12/19 08:48:43;;;;;;;14.30;12.80;;;;;;;2.45;100.00;96765.28;5064581;28;20403;-61
2022/12/19 08:51:10;;;;;;;20.48;16.25;;;;;;;2.55;100.00;96770.94;5064645;28;20051;-61
2022/12/19 08:53:38;;;;;;;10.70;9.73;;;;;;;2.55;100.00;96748.41;5066597;28;20549;-60
2022/12/19 08:56:25;;;;;;;11.27;10.00;;;;;;;2.65;100.00;96750.59;5068526;28;20169;-61
2022/12/19 08:58:51;;;;;;;8.93;8.00;;;;;;;3.01;100.00;96760.28;5060095;28;20037;-61
2022/12/19 09:01:19;;;;;;;12.02;10.75;;;;;;;3.02;100.00;96756.78;5065112;28;20048;-61
2022/12/19 09:03:45;;;;;;;9.95;8.95;;;;;;;3.09;100.00;96747.75;5065813;28;20101;-61
2022/12/19 09:06:12;;;;;;;10.43;8.10;;;;;;;3.10;100.00;96739.03;5066255;28;20053;-60
2022/12/19 09:08:39;;;;;;;30.17;21.88;;;;;;;3.18;100.00;96743.03;5067714;28;20044;-61
2022/12/19 09:11:06;;;;;;;28.10;19.48;;;;;;;3.26;100.00;96741.78;5064087;28;20179;-60
2022/12/19 09:13:32;;;;;;;36.95;24.75;;;;;;;3.38;100.00;96742.97;5066660;28;20040;-61
2022/12/19 09:16:02;;;;;;;17.98;16.08;;;;;;;3.52;100.00;96754.50;5068643;28;20119;-60
2022/12/19 09:18:28;;;;;;;22.13;16.83;;;;;;;3.50;100.00;96745.91;5065956;28;20044;-62
2022/12/19 09:20:54;;;;;;;25.50;16.52;;;;;;;3.61;100.00;96746.25;5064275;28;20021;-61
2022/12/19 09:23:20;;;;;;;25.67;19.25;;;;;;;3.69;100.00;96733.72;5068357;28;20035;-61
2022/12/19 09:25:46;;;;;;;17.33;13.52;;;;;;;3.82;100.00;96738.31;5065724;28;20128;-61
2022/12/19 09:28:11;;;;;;;21.52;16.35;;;;;;;4.01;100.00;96746.94;5068005;28;20148;-61
2022/12/19 09:30:36;;;;;;;18.35;16.35;;;;;;;4.04;100.00;96752.91;5067835;28;20029;-62
2022/12/19 09:33:02;;;;;;;19.60;14.73;;;;;;;4.13;100.00;96760.28;5066599;28;20036;-62
2022/12/19 09:35:27;;;;;;;22.65;19.85;;;;;;;4.21;100.00;96767.72;5063733;28;20035;-63
2022/12/19 09:37:52;;;;;;;18.98;16.95;;;;;;;4.32;100.00;96770.63;5065331;28;20561;-62
2022/12/19 09:40:18;;;;;;;20.55;17.95;;;;;;;4.50;100.00;96771.47;5064341;28;20063;-62
2022/12/19 09:43:16;;;;;;;17.80;14.00;;;;;;;4.64;100.00;96768.19;5066336;28;20040;-61
2022/12/19 09:46:03;;;;;;;9.48;8.55;;;;;;;4.86;100.00;96761.81;5064250;28;20387;-60
2022/12/19 09:48:28;;;;;;;7.65;6.95;;;;;;;4.92;100.00;96771.97;5065213;28;20413;-60
2022/12/19 09:51:11;;;;;;;15.48;13.90;;;;;;;4.93;96.33;96757.97;5065975;28;20035;-60
2022/12/19 09:54:04;;;;;;;14.57;9.60;;;;;;;5.03;97.95;96753.13;5066190;28;20071;-60
2022/12/19 09:56:33;;;;;;;9.98;8.52;;;;;;;4.96;97.75;96760.44;5078583;28;20031;-60
2022/12/19 09:59:24;;;;;;;15.57;8.38;;;;;;;4.91;99.34;96758.97;5059844;28;20033;-60
2022/12/19 10:02:03;;;;;;;11.90;9.07;;;;;;;4.92;99.93;96761.50;5067342;28;20505;-54
2022/12/19 10:04:33;;;;;;;8.68;6.63;;;;;;;5.11;96.49;96763.16;5066373;28;20033;-57
2022/12/19 10:06:58;;;;;;;6.85;5.85;;;;;;;5.06;97.06;96768.63;5067685;28;20040;-60
2022/12/19 10:09:31;;;;;;;6.88;6.25;;;;;;;5.03;97.95;96768.78;5063829;28;20033;-60
2022/12/19 10:12:26;;;;;;;7.45;6.35;;;;;;;5.00;98.05;96772.38;5067490;28;20032;-61
2022/12/19 10:15:00;;;;;;;7.97;7.25;;;;;;;5.07;97.99;96772.06;5067065;28;20459;-61
2022/12/19 10:17:47;;;;;;;8.15;7.05;;;;;;;5.02;96.26;96765.31;5068089;28;20146;-60
2022/12/19 10:20:34;;;;;;;10.60;7.90;;;;;;;5.10;96.98;96766.69;5066970;28;20048;-60
2022/12/19 10:23:29;;;;;;;8.43;7.60;;;;;;;5.14;97.16;96763.81;5065124;28;20036;-53
2022/12/19 10:26:10;;;;;;;9.07;8.15;;;;;;;5.12;96.43;96765.66;5058221;28;20528;-61
2022/12/19 10:28:53;;;;;;;12.25;8.25;;;;;;;5.30;95.96;96757.78;5061615;28;20623;-61
2022/12/19 10:31:27;;;;;;;8.82;7.75;;;;;;;5.37;95.45;96753.91;5056075;28;20040;-61
2022/12/19 10:34:01;;;;;;;9.95;8.95;;;;;;;5.39;96.27;96748.59;5067334;28;20036;-61
2022/12/19 10:36:30;;;;;;;13.35;8.50;;;;;;;5.35;95.82;96742.69;5061724;28;20224;-61
2022/12/19 10:39:05;;;;;;;11.95;9.23;;;;;;;5.45;96.11;96743.03;5067487;28;20461;-61
2022/12/19 10:41:31;;;;;;;12.88;10.15;;;;;;;5.60;93.72;96738.72;5064227;28;20045;-60
2022/12/19 10:44:07;;;;;;;8.65;7.75;;;;;;;5.59;93.71;96739.66;5062101;28;20431;-67
2022/12/19 10:46:46;;;;;;;9.18;8.23;;;;;;;5.66;93.78;96729.72;5064257;28;20044;-68
2022/12/19 10:49:20;;;;;;;10.75;8.25;;;;;;;5.66;91.53;96727.97;5064348;28;20561;-67
2022/12/19 10:51:54;;;;;;;13.05;9.55;;;;;;;5.84;91.87;96722.59;5064311;28;20581;-67
2022/12/19 10:54:22;;;;;;;12.60;9.80;;;;;;;5.82;91.55;96727.06;5065344;28;20041;-67
2022/12/19 10:56:48;;;;;;;11.73;8.88;;;;;;;5.89;91.02;96720.59;5068390;28;20072;-67
2022/12/19 10:59:19;;;;;;;9.60;7.60;;;;;;;5.85;91.83;96719.06;5068728;28;20512;-60
2022/12/19 11:01:46;;;;;;;14.40;10.20;;;;;;;5.91;93.84;96718.72;5065820;28;20036;-70
2022/12/19 11:04:14;;;;;;;18.33;10.27;;;;;;;6.09;92.89;96718.63;5066027;28;20052;-58
2022/12/19 11:07:03;;;;;;;11.13;8.13;;;;;;;6.39;89.89;96707.31;5065864;28;20043;-52
2022/12/19 11:09:45;;;;;;;8.40;7.60;;;;;;;6.35;89.14;96717.09;5064196;28;20029;-55
2022/12/19 11:12:16;;;;;;;9.25;7.70;;;;;;;6.36;90.21;96718.78;5042659;28;20472;-57
2022/12/19 11:14:49;;;;;;;8.35;7.40;;;;;;;6.51;90.53;96714.41;5064711;28;20040;-55
2022/12/19 11:17:25;;;;;;;11.50;9.52;;;;;;;6.61;90.35;96722.53;5061972;28;20044;-54
2022/12/19 11:19:51;;;;;;;10.85;8.13;;;;;;;6.84;90.77;96715.06;5064829;28;20489;-60
2022/12/19 11:22:25;;;;;;;10.85;8.25;;;;;;;6.88;90.30;96727.06;5064246;28;20039;-70
2022/12/19 11:24:53;;;;;;;11.00;8.77;;;;;;;7.00;91.30;96723.69;5064382;28;20510;-70
2022/12/19 11:27:34;;;;;;;13.52;9.10;;;;;;;7.20;89.22;96726.03;5060905;28;20114;-74
2022/12/19 11:30:00;;;;;;;6.07;5.57;;;;;;;7.39;87.42;96726.53;5063388;28;20032;-74
2022/12/19 11:32:37;;;;;;;9.60;7.57;;;;;;;7.49;85.12;96728.59;5066564;28;20278;-74
2022/12/19 11:35:15;;;;;;;37.80;24.08;;;;;;;7.52;84.22;96725.75;5066998;28;20037;-74
2022/12/19 11:37:48;;;;;;;10.52;9.40;;;;;;;7.52;85.13;96725.75;5071072;28;20425;-62
2022/12/19 11:40:22;;;;;;;10.23;8.30;;;;;;;7.54;85.30;96731.75;5061248;28;20032;-62